Time;durP1;ratioP1;P1;durP2;ratioP2;P2;SDS_P1;SDS_P2;PMS_P1;PMS_P2;Temp;Humidity;BMP_temperature;BMP_pressure;BME280_temperature;BME280_humidity;BME280_pressure;Samples;Min_cycle;Max_cycle;Signal;HPM_P1;HPM_P2
2021/09/29 00:00:56;;;;;;;36.88;21.85;;;;;;;23.17;60.79;101555.77;1778151;80;20905;-43
2021/09/29 00:03:22;;;;;;;38.08;22.27;;;;;;;23.16;60.79;101548.59;1780584;80;21705;-44
2021/09/29 00:05:48;;;;;;;37.28;22.77;;;;;;;23.18;60.84;101553.80;1701213;83;20882;-45
2021/09/29 00:08:14;;;;;;;35.05;21.48;;;;;;;23.17;60.92;101550.20;1781505;79;20900;-46
2021/09/29 00:10:40;;;;;;;34.30;22.37;;;;;;;23.19;61.01;101543.78;1781556;79;20972;-44
2021/09/29 00:13:07;;;;;;;34.23;22.32;;;;;;;23.21;61.08;101547.05;1785139;80;21079;-43
2021/09/29 00:15:33;;;;;;;39.38;23.00;;;;;;;23.22;61.07;101552.03;1782655;80;21477;-43
2021/09/29 00:17:59;;;;;;;35.13;22.07;;;;;;;23.22;61.04;101554.25;1735554;81;20988;-43
2021/09/29 00:20:25;;;;;;;32.93;21.62;;;;;;;23.22;61.01;101548.70;1783556;79;21037;-43
2021/09/29 00:22:51;;;;;;;32.48;22.37;;;;;;;23.22;60.95;101552.03;1776619;80;21574;-44
2021/09/29 00:25:18;;;;;;;38.05;22.75;;;;;;;23.22;60.87;101553.42;1774446;80;21052;-43
2021/09/29 00:27:44;;;;;;;33.45;21.62;;;;;;;23.21;60.83;101553.98;1780107;80;21514;-44
2021/09/29 00:30:11;;;;;;;31.87;20.77;;;;;;;23.18;60.79;101553.24;1777510;80;21115;-44
2021/09/29 00:32:40;;;;;;;30.68;19.62;;;;;;;23.17;60.75;101559.10;1775096;80;21109;-43
2021/09/29 00:35:07;;;;;;;30.90;20.15;;;;;;;23.14;60.72;101551.41;1695688;83;21136;-43
2021/09/29 00:37:33;;;;;;;29.95;19.50;;;;;;;23.11;60.68;101547.89;1729948;80;21008;-43
2021/09/29 00:39:59;;;;;;;31.02;19.98;;;;;;;23.07;60.69;101550.48;1729445;81;21286;-44
2021/09/29 00:42:25;;;;;;;30.80;20.00;;;;;;;23.06;60.68;101553.57;1733340;81;21071;-43
2021/09/29 00:44:52;;;;;;;31.62;20.00;;;;;;;23.05;60.68;101552.75;1730567;81;21739;-43
2021/09/29 00:47:19;;;;;;;27.62;18.35;;;;;;;23.05;60.72;101550.53;1771820;80;21171;-44
2021/09/29 00:49:46;;;;;;;31.48;18.00;;;;;;;23.06;60.83;101546.63;1775933;79;21060;-45
2021/09/29 00:52:13;;;;;;;30.27;19.25;;;;;;;23.08;60.89;101543.81;1735357;81;21075;-44
2021/09/29 00:54:40;;;;;;;28.07;18.20;;;;;;;23.10;60.96;101549.84;1726148;81;21080;-43
2021/09/29 00:57:07;;;;;;;30.20;18.85;;;;;;;23.11;60.97;101548.72;1733485;81;21126;-44
2021/09/29 00:59:33;;;;;;;30.85;19.70;;;;;;;23.13;60.95;101546.43;1736319;81;21299;-43
2021/09/29 01:01:59;;;;;;;30.62;18.02;;;;;;;23.14;60.87;101548.08;1725566;81;21104;-46
2021/09/29 01:04:26;;;;;;;28.12;18.07;;;;;;;23.13;60.80;101547.81;1721585;81;20913;-45
2021/09/29 01:07:24;;;;;;;27.98;17.85;;;;;;;23.13;60.72;101545.05;1730681;81;21071;-43
2021/09/29 01:09:59;;;;;;;26.35;17.62;;;;;;;23.12;60.67;101542.04;1725487;81;21178;-45
2021/09/29 01:12:45;;;;;;;27.90;17.92;;;;;;;23.10;60.60;101545.69;1726066;81;21172;-43
2021/09/29 01:15:27;;;;;;;26.12;18.25;;;;;;;23.07;60.53;101545.50;1726746;81;21056;-44
2021/09/29 01:17:58;;;;;;;28.25;16.60;;;;;;;23.04;60.52;101544.75;1728849;81;21120;-44
2021/09/29 01:20:28;;;;;;;24.75;16.67;;;;;;;22.99;60.50;101540.72;1720305;81;21085;-43
2021/09/29 01:23:30;;;;;;;25.80;17.05;;;;;;;22.95;60.50;101545.27;1775787;80;21618;-44
2021/09/29 01:26:11;;;;;;;26.97;17.00;;;;;;;22.92;60.30;101548.08;1776148;80;22463;-44
2021/09/29 01:28:47;;;;;;;25.82;16.80;;;;;;;22.88;60.50;101546.25;1734287;81;21495;-42
2021/09/29 01:31:15;;;;;;;24.75;15.43;;;;;;;22.87;60.51;101546.84;1700298;81;21064;-43
2021/09/29 01:33:41;;;;;;;25.35;15.50;;;;;;;22.88;60.58;101546.25;1784270;78;21030;-43
2021/09/29 01:36:07;;;;;;;26.25;16.00;;;;;;;22.90;60.69;101546.77;1784312;78;21057;-43
2021/09/29 01:38:34;;;;;;;25.35;16.12;;;;;;;22.92;60.77;101544.48;1790379;79;20955;-44
2021/09/29 01:41:01;;;;;;;25.55;16.60;;;;;;;22.95;60.83;101549.42;1762561;79;21720;-44
2021/09/29 01:43:29;;;;;;;25.65;15.70;;;;;;;22.96;60.86;101550.48;1787231;79;21110;-44
2021/09/29 01:45:55;;;;;;;24.00;16.05;;;;;;;22.98;60.81;101546.01;1786080;79;21075;-45
2021/09/29 01:48:21;;;;;;;26.20;16.32;;;;;;;22.99;60.76;101544.88;1769353;79;20932;-44
2021/09/29 01:50:47;;;;;;;25.72;15.88;;;;;;;23.00;60.67;101540.38;1778449;79;21036;-42
2021/09/29 01:53:13;;;;;;;22.40;16.07;;;;;;;23.00;60.58;101547.32;1785313;79;21087;-43
2021/09/29 01:55:40;;;;;;;22.98;15.05;;;;;;;22.99;60.52;101544.88;1787023;79;21000;-43
2021/09/29 01:58:06;;;;;;;22.20;15.35;;;;;;;22.97;60.46;101545.19;1785611;78;21094;-43
2021/09/29 02:00:32;;;;;;;26.17;15.03;;;;;;;22.95;60.42;101541.92;1788101;79;21094;-42
2021/09/29 02:02:59;;;;;;;22.15;14.75;;;;;;;22.93;60.39;101549.73;1782355;79;21103;-43
2021/09/29 02:05:29;;;;;;;22.02;15.30;;;;;;;22.90;60.35;101546.20;1749394;80;22265;-42
2021/09/29 02:07:56;;;;;;;24.02;15.83;;;;;;;22.88;60.34;101543.47;1748834;81;21584;-44
2021/09/29 02:10:22;;;;;;;24.77;14.85;;;;;;;22.86;60.34;101544.38;1742132;81;21138;-42
2021/09/29 02:12:48;;;;;;;24.02;14.70;;;;;;;22.82;60.34;101546.97;1742802;81;21026;-42
2021/09/29 02:15:14;;;;;;;21.87;14.15;;;;;;;22.80;60.34;101547.00;1790467;79;21466;-43
2021/09/29 02:17:40;;;;;;;21.62;13.72;;;;;;;22.80;60.36;101544.23;1786342;78;21093;-42
2021/09/29 02:20:08;;;;;;;21.40;13.83;;;;;;;22.80;60.40;101538.13;1783119;79;20999;-43
2021/09/29 02:22:34;;;;;;;20.80;12.68;;;;;;;22.82;60.49;101547.53;1789302;79;21057;-44
2021/09/29 02:25:00;;;;;;;21.17;13.32;;;;;;;22.84;60.57;101543.29;1786617;79;21641;-42
2021/09/29 02:27:26;;;;;;;20.43;14.07;;;;;;;22.87;60.65;101546.02;1785711;79;21240;-44
2021/09/29 02:29:52;;;;;;;18.48;12.82;;;;;;;22.88;60.65;101542.91;1778926;78;20952;-44
2021/09/29 02:32:18;;;;;;;19.80;12.98;;;;;;;22.90;60.64;101548.98;1780249;79;21049;-43
2021/09/29 02:34:44;;;;;;;17.95;12.82;;;;;;;22.91;60.56;101545.08;1785429;79;21050;-44
2021/09/29 02:37:10;;;;;;;18.42;13.10;;;;;;;22.91;60.49;101538.14;1783115;79;21920;-42
2021/09/29 02:39:36;;;;;;;20.37;13.55;;;;;;;22.91;60.41;101548.42;1733539;81;21215;-42
2021/09/29 02:42:04;;;;;;;18.95;12.65;;;;;;;22.89;60.32;101532.08;1733788;80;20929;-43
2021/09/29 02:44:32;;;;;;;19.05;12.37;;;;;;;22.89;60.27;101540.95;1729254;81;21045;-44
2021/09/29 02:46:58;;;;;;;16.80;11.93;;;;;;;22.87;60.23;101539.08;1717418;81;21065;-43
2021/09/29 02:49:24;;;;;;;19.52;12.65;;;;;;;22.84;60.19;101537.74;1773358;80;20909;-43
2021/09/29 02:51:50;;;;;;;18.02;12.23;;;;;;;22.82;60.16;101541.41;1772570;80;21981;-45
2021/09/29 02:54:16;;;;;;;18.12;11.90;;;;;;;22.78;60.16;101539.02;1733094;81;20871;-44
2021/09/29 02:56:42;;;;;;;16.45;11.65;;;;;;;22.76;60.15;101546.82;1732677;81;21297;-46
2021/09/29 02:59:09;;;;;;;18.23;12.55;;;;;;;22.72;60.16;101539.70;1780163;80;20943;-45
2021/09/29 03:01:38;;;;;;;17.35;11.75;;;;;;;22.70;60.15;101540.56;1772906;79;21085;-44
2021/09/29 03:04:04;;;;;;;16.55;10.48;;;;;;;22.66;60.14;101540.91;1693051;82;21264;-43
2021/09/29 03:06:30;;;;;;;17.82;11.05;;;;;;;22.67;60.18;101536.19;1728938;80;20968;-43
2021/09/29 03:08:57;;;;;;;20.72;10.03;;;;;;;22.67;60.20;101539.78;1724521;81;21540;-44
2021/09/29 03:11:23;;;;;;;16.17;9.53;;;;;;;22.70;60.32;101538.39;1782584;80;21062;-46
2021/09/29 03:13:49;;;;;;;16.45;9.78;;;;;;;22.75;60.42;101543.22;1776165;80;21634;-43
2021/09/29 03:16:15;;;;;;;14.18;11.10;;;;;;;22.80;60.45;101540.07;1779109;80;21305;-45
2021/09/29 03:18:43;;;;;;;13.53;9.90;;;;;;;22.83;60.46;101545.02;1781190;79;21713;-44
2021/09/29 03:21:09;;;;;;;11.97;8.98;;;;;;;22.87;60.42;101548.80;1694263;83;21080;-43
2021/09/29 03:23:36;;;;;;;14.65;9.75;;;;;;;22.90;60.35;101548.16;1726252;81;21023;-46
2021/09/29 03:26:03;;;;;;;20.00;9.78;;;;;;;22.92;60.26;101550.03;1728955;81;21124;-43
2021/09/29 03:28:29;;;;;;;13.25;9.30;;;;;;;22.95;60.18;101546.65;1731476;81;21959;-44
2021/09/29 03:30:55;;;;;;;11.78;8.20;;;;;;;22.96;60.07;101546.88;1733510;81;21117;-43
2021/09/29 03:33:21;;;;;;;12.70;8.03;;;;;;;22.97;59.99;101545.19;1773675;79;21469;-47
2021/09/29 03:35:47;;;;;;;9.55;6.55;;;;;;;22.99;59.90;101543.49;1765363;80;20949;-44
2021/09/29 03:38:13;;;;;;;9.00;6.05;;;;;;;22.99;59.81;101540.16;1765776;80;21003;-43
2021/09/29 03:40:39;;;;;;;8.08;5.35;;;;;;;22.99;59.75;101546.27;1758793;80;22129;-44
2021/09/29 03:43:05;;;;;;;9.78;6.40;;;;;;;23.01;59.66;101548.14;1765960;80;21078;-43
2021/09/29 03:45:31;;;;;;;8.20;5.62;;;;;;;23.01;59.59;101550.35;1764144;80;21051;-44
2021/09/29 03:47:58;;;;;;;9.98;6.83;;;;;;;23.01;59.53;101548.97;1760263;80;21033;-43
2021/09/29 03:50:24;;;;;;;7.83;6.03;;;;;;;23.01;59.47;101550.91;1770336;80;21040;-43
2021/09/29 03:52:50;;;;;;;8.23;5.20;;;;;;;23.01;59.45;101557.29;1720508;82;21185;-43
2021/09/29 03:55:16;;;;;;;8.45;5.55;;;;;;;23.01;59.41;101557.86;1710601;82;21649;-45
2021/09/29 03:57:42;;;;;;;7.67;5.17;;;;;;;23.00;59.37;101557.03;1711170;82;21141;-43
2021/09/29 04:00:11;;;;;;;13.85;8.08;;;;;;;23.01;59.36;101558.68;1715919;82;21488;-43
2021/09/29 04:02:37;;;;;;;11.85;5.92;;;;;;;23.02;59.32;101553.95;1682890;83;21046;-43
2021/09/29 04:05:05;;;;;;;7.37;4.50;;;;;;;23.05;59.33;101558.86;1674436;85;22022;-44
2021/09/29 04:07:31;;;;;;;7.85;4.40;;;;;;;23.10;59.33;101558.73;1714944;83;21117;-44
2021/09/29 04:09:57;;;;;;;7.50;4.40;;;;;;;23.13;59.41;101560.88;1712692;83;20986;-44
2021/09/29 04:12:24;;;;;;;9.53;4.90;;;;;;;23.18;59.45;101570.47;1714213;83;20965;-45
2021/09/29 04:14:50;;;;;;;10.45;6.33;;;;;;;23.21;59.50;101567.08;1714938;83;21125;-45
2021/09/29 04:17:16;;;;;;;13.03;7.05;;;;;;;23.25;59.52;101561.70;1686314;83;21289;-45
2021/09/29 04:19:42;;;;;;;20.05;8.78;;;;;;;23.28;59.46;101566.61;1711468;82;21069;-47
2021/09/29 04:22:10;;;;;;;20.27;8.15;;;;;;;23.31;59.41;101565.97;1715940;82;20913;-45
2021/09/29 04:24:40;;;;;;;45.35;14.05;;;;;;;23.33;59.34;101562.32;1714089;81;21004;-45
2021/09/29 04:27:08;;;;;;;40.63;11.60;;;;;;;23.34;59.26;101566.74;1724414;82;20981;-44
2021/09/29 04:29:35;;;;;;;27.62;9.40;;;;;;;23.34;59.22;101561.98;1710175;82;22159;-44
2021/09/29 04:32:02;;;;;;;36.48;11.60;;;;;;;23.34;59.18;101557.81;1752976;79;21032;-43
2021/09/29 04:34:29;;;;;;;11.40;6.08;;;;;;;23.35;59.17;101564.20;1774400;80;20964;-44
2021/09/29 04:36:55;;;;;;;28.98;10.53;;;;;;;23.35;59.14;101565.58;1780098;79;21502;-45
2021/09/29 04:39:21;;;;;;;19.45;8.73;;;;;;;23.34;59.12;101568.92;1773185;80;20994;-45
2021/09/29 04:41:47;;;;;;;10.45;6.20;;;;;;;23.34;59.11;101570.91;1774018;80;21215;-43
2021/09/29 04:44:13;;;;;;;42.48;12.65;;;;;;;23.33;59.09;101571.47;1742122;81;20878;-45
2021/09/29 04:46:39;;;;;;;168.82;44.55;;;;;;;23.32;59.09;101578.72;1785749;79;21079;-46
2021/09/29 04:49:05;;;;;;;194.72;58.92;;;;;;;23.32;59.10;101578.72;1790806;79;21036;-46
2021/09/29 04:51:32;;;;;;;144.93;37.90;;;;;;;23.31;59.13;101582.63;1782392;79;20968;-44
2021/09/29 04:53:58;;;;;;;25.05;9.00;;;;;;;23.30;59.11;101587.36;1780680;80;21291;-48
2021/09/29 04:56:24;;;;;;;80.32;24.05;;;;;;;23.33;59.12;101591.48;1780323;79;21602;-43
2021/09/29 04:58:50;;;;;;;24.25;8.10;;;;;;;23.34;59.18;101585.59;1776665;80;20911;-45
2021/09/29 05:01:25;;;;;;;20.43;7.97;;;;;;;23.36;59.26;101591.66;1736957;81;21437;-45
2021/09/29 05:03:53;;;;;;;25.88;9.43;;;;;;;23.40;59.37;101598.78;1733453;79;21117;-46
2021/09/29 05:06:19;;;;;;;53.08;21.68;;;;;;;23.42;59.43;101596.52;1785130;79;21244;-46
2021/09/29 05:08:47;;;;;;;33.33;13.55;;;;;;;23.43;59.44;101593.97;1780088;79;20942;-51
2021/09/29 05:11:27;;;;;;;23.22;9.33;;;;;;;23.45;59.43;101595.34;1747304;81;21020;-45
2021/09/29 05:13:53;;;;;;;60.35;20.62;;;;;;;23.46;59.39;101594.21;1780969;79;27114;-49
2021/09/29 05:16:19;;;;;;;32.38;11.83;;;;;;;23.47;59.31;101595.83;1759469;80;20927;-46
2021/09/29 05:18:45;;;;;;;364.40;124.22;;;;;;;23.47;59.31;101597.22;1776798;80;21330;-44
2021/09/29 05:21:11;;;;;;;96.82;27.93;;;;;;;23.47;59.26;101599.99;1774603;80;20978;-45
2021/09/29 05:23:37;;;;;;;12.37;6.80;;;;;;;23.46;59.24;101594.21;1772811;80;20927;-43
2021/09/29 05:26:03;;;;;;;9.70;5.47;;;;;;;23.45;59.24;101593.95;1774097;80;21530;-43
2021/09/29 05:28:36;;;;;;;7.62;5.22;;;;;;;23.44;59.21;101594.26;1778974;80;20942;-45
2021/09/29 05:31:03;;;;;;;6.55;4.92;;;;;;;23.42;59.19;101591.79;1743534;81;22072;-43
2021/09/29 05:33:29;;;;;;;12.82;5.92;;;;;;;23.40;59.16;101592.66;1781690;79;21450;-43
2021/09/29 05:35:55;;;;;;;17.77;7.92;;;;;;;23.39;59.16;101599.34;1753738;80;21452;-45
2021/09/29 05:38:21;;;;;;;19.92;9.13;;;;;;;23.37;59.18;101599.42;1754145;79;20896;-46
2021/09/29 05:40:47;;;;;;;17.07;8.85;;;;;;;23.36;59.18;101595.00;1753735;80;20950;-43
2021/09/29 05:43:13;;;;;;;16.87;8.50;;;;;;;23.34;59.21;101599.47;1721825;82;21541;-45
2021/09/29 05:45:39;;;;;;;15.63;7.60;;;;;;;23.35;59.24;101600.30;1705715;82;21096;-42
2021/09/29 05:48:06;;;;;;;49.85;22.00;;;;;;;23.37;59.33;101598.86;1712105;82;21496;-43
2021/09/29 05:50:35;;;;;;;414.52;170.75;;;;;;;23.39;59.43;101606.28;1713577;82;20989;-45
2021/09/29 05:53:01;;;;;;;533.55;202.97;;;;;;;23.42;59.56;101609.84;1716864;82;21120;-44
2021/09/29 05:55:27;;;;;;;532.45;199.38;;;;;;;23.44;59.62;101613.70;1714224;82;22061;-46
2021/09/29 05:57:53;;;;;;;370.00;130.25;;;;;;;23.46;59.66;101615.61;1711674;82;20859;-47
2021/09/29 06:00:19;;;;;;;411.08;132.78;;;;;;;23.46;59.64;101617.81;1712396;81;21900;-45
2021/09/29 06:02:46;;;;;;;31.77;11.90;;;;;;;23.48;59.63;101625.25;1719202;82;21129;-46
2021/09/29 06:05:12;;;;;;;17.57;8.88;;;;;;;23.49;59.57;101628.28;1721508;82;21068;-43
2021/09/29 06:07:38;;;;;;;20.35;8.63;;;;;;;23.49;59.52;101632.45;1712492;83;21479;-45
2021/09/29 06:10:06;;;;;;;23.80;8.60;;;;;;;23.48;59.47;101633.58;1753557;80;21146;-44
2021/09/29 06:12:32;;;;;;;27.87;10.25;;;;;;;23.47;59.42;101627.77;1766754;80;21563;-43
2021/09/29 06:14:58;;;;;;;21.12;8.20;;;;;;;23.46;59.36;101636.44;1765096;80;20961;-43
2021/09/29 06:17:25;;;;;;;25.90;9.50;;;;;;;23.44;59.33;101639.52;1767387;80;21091;-42
2021/09/29 06:19:52;;;;;;;21.25;9.50;;;;;;;23.42;59.29;101639.00;1714912;82;21094;-43
2021/09/29 06:22:19;;;;;;;22.22;9.45;;;;;;;23.40;59.27;101640.44;1724871;82;21157;-43
2021/09/29 06:24:45;;;;;;;21.27;9.75;;;;;;;23.38;59.25;101644.11;1718185;82;21049;-43
2021/09/29 06:27:11;;;;;;;24.65;10.05;;;;;;;23.36;59.23;101642.20;1756347;79;21101;-44
2021/09/29 06:29:37;;;;;;;25.40;9.53;;;;;;;23.32;59.22;101644.80;1763772;80;21077;-43
2021/09/29 06:32:04;;;;;;;24.20;9.55;;;;;;;23.31;59.21;101647.88;1762724;80;21973;-43
2021/09/29 06:34:31;;;;;;;26.40;10.05;;;;;;;23.29;59.21;101646.00;1766768;80;21021;-43
2021/09/29 06:36:57;;;;;;;23.30;10.60;;;;;;;23.29;59.23;101659.33;1723871;81;21060;-45
2021/09/29 06:39:23;;;;;;;28.00;9.10;;;;;;;23.30;59.24;101655.38;1764598;80;20969;-45
2021/09/29 06:41:49;;;;;;;25.43;9.88;;;;;;;23.31;59.34;101651.48;1770391;79;21115;-43
2021/09/29 06:44:15;;;;;;;20.55;8.83;;;;;;;23.34;59.40;101650.84;1762778;80;22117;-43
2021/09/29 06:46:42;;;;;;;22.30;8.13;;;;;;;23.37;59.45;101653.57;1760540;80;21084;-45
2021/09/29 06:49:08;;;;;;;20.27;8.88;;;;;;;23.37;59.47;101651.62;1761292;80;21601;-43
2021/09/29 06:51:34;;;;;;;22.52;8.55;;;;;;;23.39;59.42;101652.67;1762952;80;20999;-44
2021/09/29 06:54:01;;;;;;;27.85;9.23;;;;;;;23.40;59.35;101656.53;1761704;79;21525;-42
2021/09/29 06:56:27;;;;;;;22.00;9.38;;;;;;;23.40;59.25;101659.31;1771673;79;21238;-42
2021/09/29 06:58:53;;;;;;;18.35;9.00;;;;;;;23.40;59.21;101670.42;1764092;80;21470;-44
2021/09/29 07:01:20;;;;;;;18.65;8.98;;;;;;;23.39;59.10;101665.17;1773567;80;21084;-44
2021/09/29 07:03:47;;;;;;;28.10;9.78;;;;;;;23.37;59.06;101672.45;1723325;81;21527;-44
2021/09/29 07:06:13;;;;;;;17.48;8.30;;;;;;;23.36;59.00;101669.97;1763040;80;21132;-44
2021/09/29 07:08:40;;;;;;;24.35;9.85;;;;;;;23.34;58.98;101673.66;1763521;80;21104;-42
2021/09/29 07:11:06;;;;;;;18.95;8.43;;;;;;;23.32;58.96;101671.73;1768107;80;21164;-45
2021/09/29 07:13:32;;;;;;;19.90;7.97;;;;;;;23.28;58.94;101671.55;1764882;80;20921;-43
2021/09/29 07:15:58;;;;;;;29.65;9.28;;;;;;;23.27;58.92;101670.47;1723005;81;21475;-43
2021/09/29 07:18:28;;;;;;;20.10;9.10;;;;;;;23.23;58.93;101668.90;1763169;80;21000;-44
2021/09/29 07:20:52;;;;;;;16.25;8.10;;;;;;;23.20;58.92;101668.15;1754744;80;21543;-42
2021/09/29 07:23:17;;;;;;;15.55;7.92;;;;;;;23.18;58.95;101674.00;1765637;80;20907;-42
2021/09/29 07:25:45;;;;;;;18.62;8.80;;;;;;;23.15;58.95;101676.03;1727172;81;32467;-43
2021/09/29 07:28:11;;;;;;;16.00;8.03;;;;;;;23.14;58.98;101683.27;1760650;80;21082;-43
2021/09/29 07:30:38;;;;;;;19.00;7.47;;;;;;;23.11;58.98;101676.97;1768448;80;21068;-43
2021/09/29 07:33:07;;;;;;;15.68;6.50;;;;;;;23.11;58.98;101681.95;1762825;80;21493;-43
2021/09/29 07:35:33;;;;;;;18.52;7.35;;;;;;;23.14;59.05;101683.27;1780138;80;21030;-43
2021/09/29 07:38:00;;;;;;;14.70;7.10;;;;;;;23.15;59.15;101685.75;1735512;81;21150;-44
2021/09/29 07:40:28;;;;;;;13.62;7.15;;;;;;;23.18;59.25;101685.67;1785938;79;21491;-44
2021/09/29 07:42:55;;;;;;;15.03;7.53;;;;;;;23.20;59.30;101684.80;1742311;81;21059;-48
2021/09/29 07:45:23;;;;;;;15.55;6.87;;;;;;;23.22;59.33;101687.51;1777506;79;21300;-47
2021/09/29 07:47:50;;;;;;;15.43;7.15;;;;;;;23.23;59.29;101692.50;1733780;81;21345;-50
2021/09/29 07:50:17;;;;;;;13.75;6.75;;;;;;;23.25;59.24;101690.80;1779602;79;21061;-45
2021/09/29 07:52:44;;;;;;;14.65;6.97;;;;;;;23.26;59.19;101684.92;1779267;79;21824;-52
2021/09/29 07:55:11;;;;;;;15.23;7.12;;;;;;;23.28;59.12;101690.17;1724750;81;21115;-49
2021/09/29 07:57:38;;;;;;;13.13;6.35;;;;;;;23.27;59.05;101683.79;1788143;80;21997;-51
2021/09/29 08:00:06;;;;;;;13.30;6.33;;;;;;;23.26;58.99;101680.75;1729777;81;21041;-51
2021/09/29 08:02:33;;;;;;;10.55;5.95;;;;;;;23.26;58.95;101686.30;1780251;79;21046;-51
2021/09/29 08:05:02;;;;;;;12.07;5.85;;;;;;;23.23;58.91;101680.00;1744209;81;21067;-53
2021/09/29 08:07:27;;;;;;;11.45;6.25;;;;;;;23.21;58.89;101680.31;1778797;80;21017;-53
2021/09/29 08:09:53;;;;;;;11.68;5.42;;;;;;;23.19;58.85;101688.70;1736064;81;21213;-50
2021/09/29 08:12:19;;;;;;;12.78;6.50;;;;;;;23.17;58.84;101690.96;1775293;78;21581;-50
2021/09/29 08:14:45;;;;;;;13.78;6.83;;;;;;;23.16;58.83;101694.90;1769309;80;21114;-52
2021/09/29 08:17:11;;;;;;;10.98;6.03;;;;;;;23.13;58.81;101699.10;1771151;80;20911;-52
2021/09/29 08:19:37;;;;;;;11.97;5.45;;;;;;;23.12;58.83;101698.05;1777076;79;20919;-48
2021/09/29 08:22:05;;;;;;;11.03;5.37;;;;;;;23.10;58.84;101703.08;1776260;80;22015;-56
2021/09/29 08:24:44;;;;;;;12.40;5.37;;;;;;;23.08;58.85;101703.97;1773821;80;21082;-56
2021/09/29 08:27:12;;;;;;;12.63;5.42;;;;;;;23.06;58.86;101702.89;1777868;80;21509;-46
2021/09/29 08:32:24;;;;;;;9.73;4.95;;;;;;;23.11;58.96;101694.45;1781140;80;21561;-48
2021/09/29 08:37:49;;;;;;;9.43;5.12;;;;;;;23.20;59.18;101698.69;1773331;79;21473;-47
2021/09/29 08:40:24;;;;;;;11.63;5.53;;;;;;;23.23;59.27;101698.88;1766772;80;21071;-47
2021/09/29 08:43:00;;;;;;;9.03;5.00;;;;;;;23.27;59.29;101704.61;1761213;80;21453;-48
2021/09/29 08:47:55;;;;;;;11.48;5.45;;;;;;;23.32;59.20;101700.89;1725506;79;21099;-48
2021/09/29 08:50:24;;;;;;;9.60;4.72;;;;;;;23.33;59.12;101706.71;1761327;80;21006;-47
2021/09/29 08:52:56;;;;;;;10.43;5.10;;;;;;;23.33;59.01;101706.14;1765715;80;21054;-47
2021/09/29 08:55:40;;;;;;;14.30;5.20;;;;;;;23.34;58.97;101710.54;1760481;80;21019;-46
2021/09/29 09:17:30;;;;;;;9.25;4.60;;;;;;;23.24;58.80;101708.03;1763012;80;21120;-47
2021/09/29 09:20:14;;;;;;;6.35;3.80;;;;;;;23.21;58.78;101706.68;1771479;80;21664;-48
2021/09/29 09:22:40;;;;;;;8.18;4.42;;;;;;;23.20;58.78;101707.02;1770684;80;21194;-47
2021/09/29 09:25:07;;;;;;;9.53;4.45;;;;;;;23.17;58.78;101707.63;1768739;80;21070;-48
2021/09/29 09:27:41;;;;;;;9.35;4.37;;;;;;;23.19;58.79;101710.92;1766390;80;22519;-46
2021/09/29 09:30:08;;;;;;;7.90;3.85;;;;;;;23.22;58.87;101706.94;1763973;80;21502;-48
2021/09/29 09:32:45;;;;;;;8.68;4.33;;;;;;;23.26;58.99;101709.91;1726654;81;21116;-46
2021/09/29 09:35:13;;;;;;;7.40;3.92;;;;;;;23.30;59.07;101705.96;1733585;81;21044;-48
2021/09/29 09:37:42;;;;;;;9.23;4.33;;;;;;;23.34;59.13;101708.36;1776727;80;21048;-47
2021/09/29 09:40:16;;;;;;;6.65;4.05;;;;;;;23.36;59.12;101708.85;1746232;81;21167;-46
2021/09/29 09:42:44;;;;;;;6.95;4.10;;;;;;;23.40;59.08;101702.91;1752357;80;21076;-46
2021/09/29 09:45:11;;;;;;;7.08;4.20;;;;;;;23.41;58.99;101703.17;1778163;80;21060;-48
2021/09/29 09:47:44;;;;;;;6.90;4.00;;;;;;;23.41;58.89;101710.12;1777302;79;21499;-46
2021/09/29 09:50:11;;;;;;;6.10;3.77;;;;;;;23.42;58.80;101711.77;1778325;80;21091;-47
2021/09/29 09:52:46;;;;;;;8.13;4.50;;;;;;;23.42;58.72;101708.42;1781218;80;21945;-46
2021/09/29 09:55:15;;;;;;;6.67;3.87;;;;;;;23.42;58.66;101700.09;1782499;80;21114;-47
2021/09/29 09:57:43;;;;;;;7.45;3.75;;;;;;;23.43;58.64;101703.66;1738523;81;21341;-47
2021/09/29 10:00:13;;;;;;;7.67;4.25;;;;;;;23.42;58.61;101703.44;1779127;79;21563;-47
2021/09/29 10:02:48;;;;;;;6.07;3.73;;;;;;;23.41;58.55;101701.23;1751737;81;21094;-47
2021/09/29 10:05:17;;;;;;;8.05;3.62;;;;;;;23.41;58.53;101700.40;1778436;80;21118;-47
2021/09/29 10:07:45;;;;;;;8.18;4.20;;;;;;;23.39;58.49;101695.72;1781855;80;21055;-46
2021/09/29 10:10:17;;;;;;;7.67;4.15;;;;;;;23.38;58.47;101689.34;1779839;80;21069;-46
2021/09/29 10:27:17;;;;;;;6.25;3.67;;;;;;;23.29;58.35;101694.03;1778363;79;21496;-47
2021/09/29 10:30:04;;;;;;;8.03;3.08;;;;;;;23.28;58.34;101688.78;1779237;79;21149;-48
2021/09/29 10:32:28;;;;;;;7.17;3.50;;;;;;;23.30;58.32;101692.88;1786134;79;21307;-47
2021/09/29 10:40:32;;;;;;;10.13;6.28;;;;;;;23.39;58.47;101684.05;1623146;86;21559;-47
2021/09/29 10:42:55;;;;;;;9.45;5.97;;;;;;;23.42;58.45;101684.82;1750791;80;21272;-47
2021/09/29 10:45:31;;;;;;;8.85;6.35;;;;;;;23.44;58.41;101674.23;1734022;81;21077;-48
2021/09/29 10:48:04;;;;;;;;;;;;;;;23.47;58.29;101688.87;1728750;80;21074;-47
2021/09/29 10:50:46;;;;;;;17.92;12.50;;;;;;;23.48;58.12;101676.63;1774608;80;20411;-48
2021/09/29 11:30:49;;;;;;;21.10;15.00;;;;;;;23.37;56.37;101649.41;1724592;81;21096;-44
2021/09/29 11:33:38;;;;;;;18.62;14.53;;;;;;;23.36;56.33;101647.76;1727319;81;21134;-44
2021/09/29 11:36:25;;;;;;;21.05;13.62;;;;;;;23.36;56.33;101649.15;1766784;80;21180;-44
2021/09/29 12:07:58;;;;;;;19.98;14.15;;;;;;;23.31;56.32;101641.77;1722932;81;21066;-47
2021/09/29 12:09:03;;;;;;;24.63;17.87;;;;;;;23.31;56.25;101638.98;1723753;81;21170;-47
2021/09/29 12:11:26;;;;;;;24.35;16.17;;;;;;;23.31;56.21;101632.61;1715154;81;21314;-48
2021/09/29 12:16:33;;;;;;;22.55;15.93;;;;;;;23.32;56.16;101625.92;1719423;81;20882;-45
2021/09/29 12:19:08;;;;;;;58.55;41.08;;;;;;;23.34;56.14;101630.02;1719453;81;21119;-46
2021/09/29 12:21:46;;;;;;;33.28;23.35;;;;;;;23.32;56.01;101628.14;1721092;81;21002;-46
2021/09/29 12:24:13;;;;;;;23.87;16.27;;;;;;;23.31;55.52;101625.67;1719935;81;21464;-47
2021/09/29 12:26:44;;;;;;;19.73;12.80;;;;;;;23.30;54.94;101628.22;1721447;81;21450;-46
2021/09/29 12:29:22;;;;;;;23.50;17.50;;;;;;;23.29;54.37;101624.62;1731059;81;21104;-45
2021/09/29 12:31:56;;;;;;;24.82;16.15;;;;;;;23.29;54.00;101623.79;1722082;81;21908;-47
2021/09/29 12:34:27;;;;;;;;;;;;;;;23.29;53.94;101623.79;1719909;81;21654;-46
2021/09/29 12:36:46;;;;;;;19.00;14.15;;;;;;;23.28;53.88;101624.92;1708923;81;20492;-47
2021/09/29 12:39:25;;;;;;;17.40;12.98;;;;;;;23.28;53.90;101623.53;1743930;80;21075;-55
2021/09/29 12:41:54;;;;;;;16.07;12.25;;;;;;;23.26;53.80;101616.89;1751146;80;21053;-55
2021/09/29 12:44:20;;;;;;;18.48;13.08;;;;;;;23.23;53.69;101616.97;1753128;80;21132;-56
2021/09/29 12:46:52;;;;;;;17.52;12.37;;;;;;;23.21;53.68;101613.67;1750680;79;21150;-56
2021/09/29 12:49:20;;;;;;;19.95;14.07;;;;;;;23.21;53.68;101617.84;1758923;80;21046;-55
2021/09/29 12:51:53;;;;;;;;;;;;;;;23.21;53.69;101617.05;1762482;80;21129;-54
2021/09/29 12:54:20;;;;;;;17.40;13.15;;;;;;;23.19;53.73;101611.80;1758354;79;20729;-56
2021/09/29 12:56:44;;;;;;;21.25;12.98;;;;;;;23.19;53.80;101615.14;1760199;80;21912;-51
2021/09/29 12:59:10;;;;;;;18.12;11.97;;;;;;;23.19;53.82;101608.20;1762588;79;21083;-57
2021/09/29 13:01:36;;;;;;;13.72;10.53;;;;;;;23.19;53.84;101613.75;1753337;80;21646;-59
2021/09/29 13:04:04;;;;;;;20.52;12.33;;;;;;;23.20;53.83;101612.63;1752340;80;20970;-56
2021/09/29 13:06:30;;;;;;;15.48;11.08;;;;;;;23.22;53.77;101613.94;1766747;80;21068;-57
2021/09/29 13:08:56;;;;;;;18.20;12.75;;;;;;;23.21;53.77;101605.34;1768190;80;22140;-58
2021/09/29 13:11:22;;;;;;;15.60;12.05;;;;;;;23.23;53.77;101609.20;1762312;80;21058;-57
2021/09/29 13:13:48;;;;;;;15.15;10.68;;;;;;;23.23;53.78;101608.64;1766019;80;21086;-57